sensor_id;sensor_type;location;lat;lon;timestamp;P1;P2;P0
49644;PMS5003;36494;50.730;-1.932;2023-04-01T00:01:07;2;2;
49644;PMS5003;36494;50.730;-1.932;2023-04-01T00:03:33;0;0;
49644;PMS5003;36494;50.730;-1.932;2023-04-01T00:05:58;2;2;
49644;PMS5003;36494;50.730;-1.932;2023-04-01T00:08:23;1;1;
49644;PMS5003;36494;50.730;-1.932;2023-04-01T00:10:49;2;2;
49644;PMS5003;36494;50.730;-1.932;2023-04-01T00:13:14;2;1;
49644;PMS5003;36494;50.730;-1.932;2023-04-01T00:15:39;3;3;
49644;PMS5003;36494;50.730;-1.932;2023-04-01T00:18:05;1;1;
49644;PMS5003;36494;50.730;-1.932;2023-04-01T00:20:30;0;0;
49644;PMS5003;36494;50.730;-1.932;2023-04-01T00:22:55;3;3;
49644;PMS5003;36494;50.730;-1.932;2023-04-01T00:25:21;3;2;
49644;PMS5003;36494;50.730;-1.932;2023-04-01T00:27:46;2;2;
49644;PMS5003;36494;50.730;-1.932;2023-04-01T00:30:12;3;3;
49644;PMS5003;36494;50.730;-1.932;2023-04-01T00:32:37;2;2;
49644;PMS5003;36494;50.730;-1.932;2023-04-01T00:35:03;2;2;
49644;PMS5003;36494;50.730;-1.932;2023-04-01T00:37:28;2;2;
49644;PMS5003;36494;50.730;-1.932;2023-04-01T00:39:54;2;2;
49644;PMS5003;36494;50.730;-1.932;2023-04-01T00:42:20;2;2;
49644;PMS5003;36494;50.730;-1.932;2023-04-01T00:44:47;2;2;
49644;PMS5003;36494;50.730;-1.932;2023-04-01T00:47:10;1;1;
49644;PMS5003;36494;50.730;-1.932;2023-04-01T00:49:36;2;1;
49644;PMS5003;36494;50.730;-1.932;2023-04-01T00:52:01;2;2;
49644;PMS5003;36494;50.730;-1.932;2023-04-01T00:54:27;1;1;
49644;PMS5003;36494;50.730;-1.932;2023-04-01T00:56:52;3;3;
49644;PMS5003;36494;50.730;-1.932;2023-04-01T00:59:19;1;1;
49644;PMS5003;36494;50.730;-1.932;2023-04-01T01:01:43;3;1;
49644;PMS5003;36494;50.730;-1.932;2023-04-01T01:06:38;2;2;
49644;PMS5003;36494;50.730;-1.932;2023-04-01T01:09:07;2;2;
49644;PMS5003;36494;50.730;-1.932;2023-04-01T01:11:37;2;2;
49644;PMS5003;36494;50.730;-1.932;2023-04-01T01:13:52;3;3;
49644;PMS5003;36494;50.730;-1.932;2023-04-01T01:16:17;0;0;
49644;PMS5003;36494;50.730;-1.932;2023-04-01T01:18:42;2;2;
49644;PMS5003;36494;50.730;-1.932;2023-04-01T01:26:01;2;1;
49644;PMS5003;36494;50.730;-1.932;2023-04-01T01:28:27;1;1;
49644;PMS5003;36494;50.730;-1.932;2023-04-01T01:30:49;1;1;
49644;PMS5003;36494;50.730;-1.932;2023-04-01T01:33:18;2;2;
49644;PMS5003;36494;50.730;-1.932;2023-04-01T01:35:40;2;2;
49644;PMS5003;36494;50.730;-1.932;2023-04-01T01:38:05;1;1;
49644;PMS5003;36494;50.730;-1.932;2023-04-01T01:40:31;3;2;
49644;PMS5003;36494;50.730;-1.932;2023-04-01T01:42:57;5;5;
49644;PMS5003;36494;50.730;-1.932;2023-04-01T01:45:21;2;1;
49644;PMS5003;36494;50.730;-1.932;2023-04-01T01:47:46;3;2;
49644;PMS5003;36494;50.730;-1.932;2023-04-01T01:50:11;4;2;
49644;PMS5003;36494;50.730;-1.932;2023-04-01T01:52:37;3;1;
49644;PMS5003;36494;50.730;-1.932;2023-04-01T01:55:02;3;3;
49644;PMS5003;36494;50.730;-1.932;2023-04-01T01:57:28;2;2;
49644;PMS5003;36494;50.730;-1.932;2023-04-01T01:59:55;4;3;
49644;PMS5003;36494;50.730;-1.932;2023-04-01T02:02:19;1;1;
49644;PMS5003;36494;50.730;-1.932;2023-04-01T02:04:45;3;3;
49644;PMS5003;36494;50.730;-1.932;2023-04-01T02:07:12;2;2;
49644;PMS5003;36494;50.730;-1.932;2023-04-01T02:09:36;2;2;
49644;PMS5003;36494;50.730;-1.932;2023-04-01T02:12:02;2;2;
49644;PMS5003;36494;50.730;-1.932;2023-04-01T02:14:27;2;2;
49644;PMS5003;36494;50.730;-1.932;2023-04-01T02:16:53;3;3;
49644;PMS5003;36494;50.730;-1.932;2023-04-01T02:19:17;2;2;
49644;PMS5003;36494;50.730;-1.932;2023-04-01T02:21:42;1;1;
49644;PMS5003;36494;50.730;-1.932;2023-04-01T02:24:10;2;2;
49644;PMS5003;36494;50.730;-1.932;2023-04-01T02:26:33;1;1;
49644;PMS5003;36494;50.730;-1.932;2023-04-01T02:28:59;1;1;
49644;PMS5003;36494;50.730;-1.932;2023-04-01T02:31:25;4;3;
49644;PMS5003;36494;50.730;-1.932;2023-04-01T02:33:51;2;1;
49644;PMS5003;36494;50.730;-1.932;2023-04-01T02:36:16;2;2;
49644;PMS5003;36494;50.730;-1.932;2023-04-01T02:38:42;2;1;
49644;PMS5003;36494;50.730;-1.932;2023-04-01T02:41:06;2;2;
49644;PMS5003;36494;50.730;-1.932;2023-04-01T02:43:32;2;2;
49644;PMS5003;36494;50.730;-1.932;2023-04-01T02:45:57;3;3;
49644;PMS5003;36494;50.730;-1.932;2023-04-01T02:48:23;3;3;
49644;PMS5003;36494;50.730;-1.932;2023-04-01T02:50:48;2;2;
49644;PMS5003;36494;50.730;-1.932;2023-04-01T02:53:13;3;2;
49644;PMS5003;36494;50.730;-1.932;2023-04-01T02:55:38;4;4;
49644;PMS5003;36494;50.730;-1.932;2023-04-01T02:58:04;0;0;
49644;PMS5003;36494;50.730;-1.932;2023-04-01T03:00:29;1;1;
49644;PMS5003;36494;50.730;-1.932;2023-04-01T03:02:55;2;1;
49644;PMS5003;36494;50.730;-1.932;2023-04-01T03:05:20;4;4;
49644;PMS5003;36494;50.730;-1.932;2023-04-01T03:07:46;2;2;
49644;PMS5003;36494;50.730;-1.932;2023-04-01T03:10:11;0;0;
49644;PMS5003;36494;50.730;-1.932;2023-04-01T03:12:37;2;2;
49644;PMS5003;36494;50.730;-1.932;2023-04-01T03:15:02;3;2;
49644;PMS5003;36494;50.730;-1.932;2023-04-01T03:17:27;3;2;
49644;PMS5003;36494;50.730;-1.932;2023-04-01T03:19:52;3;3;
49644;PMS5003;36494;50.730;-1.932;2023-04-01T03:22:18;2;1;
49644;PMS5003;36494;50.730;-1.932;2023-04-01T03:24:43;1;1;
49644;PMS5003;36494;50.730;-1.932;2023-04-01T03:27:08;1;1;
49644;PMS5003;36494;50.730;-1.932;2023-04-01T03:29:34;0;0;
49644;PMS5003;36494;50.730;-1.932;2023-04-01T03:31:59;2;1;
49644;PMS5003;36494;50.730;-1.932;2023-04-01T03:34:24;2;2;
49644;PMS5003;36494;50.730;-1.932;2023-04-01T03:36:50;1;1;
49644;PMS5003;36494;50.730;-1.932;2023-04-01T03:39:15;2;2;
49644;PMS5003;36494;50.730;-1.932;2023-04-01T03:41:41;2;2;
49644;PMS5003;36494;50.730;-1.932;2023-04-01T03:44:06;2;2;
49644;PMS5003;36494;50.730;-1.932;2023-04-01T03:46:32;1;1;
49644;PMS5003;36494;50.730;-1.932;2023-04-01T03:48:57;1;1;
49644;PMS5003;36494;50.730;-1.932;2023-04-01T03:51:22;2;2;
49644;PMS5003;36494;50.730;-1.932;2023-04-01T03:53:48;0;0;
49644;PMS5003;36494;50.730;-1.932;2023-04-01T03:56:14;2;2;
49644;PMS5003;36494;50.730;-1.932;2023-04-01T03:58:39;0;0;
49644;PMS5003;36494;50.730;-1.932;2023-04-01T04:03:30;1;1;
49644;PMS5003;36494;50.730;-1.932;2023-04-01T04:05:55;4;3;
49644;PMS5003;36494;50.730;-1.932;2023-04-01T04:08:20;1;1;
49644;PMS5003;36494;50.730;-1.932;2023-04-01T04:10:46;2;1;
49644;PMS5003;36494;50.730;-1.932;2023-04-01T04:13:12;2;1;
49644;PMS5003;36494;50.730;-1.932;2023-04-01T04:15:38;2;2;
49644;PMS5003;36494;50.730;-1.932;2023-04-01T04:18:02;1;1;
49644;PMS5003;36494;50.730;-1.932;2023-04-01T04:20:28;2;2;
49644;PMS5003;36494;50.730;-1.932;2023-04-01T04:22:53;3;3;
49644;PMS5003;36494;50.730;-1.932;2023-04-01T04:25:19;3;3;
49644;PMS5003;36494;50.730;-1.932;2023-04-01T04:27:44;2;2;
49644;PMS5003;36494;50.730;-1.932;2023-04-01T04:30:10;2;2;
49644;PMS5003;36494;50.730;-1.932;2023-04-01T04:32:35;3;3;
49644;PMS5003;36494;50.730;-1.932;2023-04-01T04:35:00;2;2;
49644;PMS5003;36494;50.730;-1.932;2023-04-01T04:37:25;2;2;
49644;PMS5003;36494;50.730;-1.932;2023-04-01T04:39:51;2;2;
49644;PMS5003;36494;50.730;-1.932;2023-04-01T04:42:16;2;2;
49644;PMS5003;36494;50.730;-1.932;2023-04-01T04:44:41;1;1;
49644;PMS5003;36494;50.730;-1.932;2023-04-01T04:47:07;3;2;
49644;PMS5003;36494;50.730;-1.932;2023-04-01T04:49:32;2;2;
49644;PMS5003;36494;50.730;-1.932;2023-04-01T04:51:57;2;1;
49644;PMS5003;36494;50.730;-1.932;2023-04-01T04:54:23;1;0;
49644;PMS5003;36494;50.730;-1.932;2023-04-01T04:56:48;3;3;
49644;PMS5003;36494;50.730;-1.932;2023-04-01T04:59:13;2;2;
49644;PMS5003;36494;50.730;-1.932;2023-04-01T05:01:39;2;2;
49644;PMS5003;36494;50.730;-1.932;2023-04-01T05:04:04;3;3;
49644;PMS5003;36494;50.730;-1.932;2023-04-01T05:06:29;3;2;
49644;PMS5003;36494;50.730;-1.932;2023-04-01T05:08:55;3;3;
49644;PMS5003;36494;50.730;-1.932;2023-04-01T05:11:21;9;7;
49644;PMS5003;36494;50.730;-1.932;2023-04-01T05:13:46;3;3;
49644;PMS5003;36494;50.730;-1.932;2023-04-01T05:16:12;2;2;
49644;PMS5003;36494;50.730;-1.932;2023-04-01T05:18:37;2;2;
49644;PMS5003;36494;50.730;-1.932;2023-04-01T05:21:02;4;4;
49644;PMS5003;36494;50.730;-1.932;2023-04-01T05:23:28;2;2;
49644;PMS5003;36494;50.730;-1.932;2023-04-01T05:25:53;5;3;
49644;PMS5003;36494;50.730;-1.932;2023-04-01T05:28:19;2;2;
49644;PMS5003;36494;50.730;-1.932;2023-04-01T05:30:44;2;2;
49644;PMS5003;36494;50.730;-1.932;2023-04-01T05:33:09;3;3;
49644;PMS5003;36494;50.730;-1.932;2023-04-01T05:35:34;3;3;
49644;PMS5003;36494;50.730;-1.932;2023-04-01T05:38:00;3;2;
49644;PMS5003;36494;50.730;-1.932;2023-04-01T05:40:25;2;2;
49644;PMS5003;36494;50.730;-1.932;2023-04-01T05:42:50;2;1;
49644;PMS5003;36494;50.730;-1.932;2023-04-01T05:45:15;2;2;
49644;PMS5003;36494;50.730;-1.932;2023-04-01T05:47:41;4;4;
49644;PMS5003;36494;50.730;-1.932;2023-04-01T05:50:06;2;1;
49644;PMS5003;36494;50.730;-1.932;2023-04-01T05:52:32;3;3;
49644;PMS5003;36494;50.730;-1.932;2023-04-01T05:54:57;2;2;
49644;PMS5003;36494;50.730;-1.932;2023-04-01T05:57:23;1;1;
49644;PMS5003;36494;50.730;-1.932;2023-04-01T05:59:48;2;2;
49644;PMS5003;36494;50.730;-1.932;2023-04-01T06:02:14;1;1;
49644;PMS5003;36494;50.730;-1.932;2023-04-01T06:04:39;1;1;
49644;PMS5003;36494;50.730;-1.932;2023-04-01T06:07:05;1;1;
49644;PMS5003;36494;50.730;-1.932;2023-04-01T06:09:29;3;3;
49644;PMS5003;36494;50.730;-1.932;2023-04-01T06:12:01;3;2;
49644;PMS5003;36494;50.730;-1.932;2023-04-01T06:14:23;3;2;
49644;PMS5003;36494;50.730;-1.932;2023-04-01T06:16:50;4;3;
49644;PMS5003;36494;50.730;-1.932;2023-04-01T06:19:15;2;2;
49644;PMS5003;36494;50.730;-1.932;2023-04-01T06:21:40;3;3;
49644;PMS5003;36494;50.730;-1.932;2023-04-01T06:24:05;2;2;
49644;PMS5003;36494;50.730;-1.932;2023-04-01T06:26:29;2;2;
49644;PMS5003;36494;50.730;-1.932;2023-04-01T06:29:00;3;3;
49644;PMS5003;36494;50.730;-1.932;2023-04-01T06:31:22;3;3;
49644;PMS5003;36494;50.730;-1.932;2023-04-01T06:33:46;2;2;
49644;PMS5003;36494;50.730;-1.932;2023-04-01T06:36:12;3;3;
49644;PMS5003;36494;50.730;-1.932;2023-04-01T06:38:36;3;3;
49644;PMS5003;36494;50.730;-1.932;2023-04-01T06:43:25;3;2;
49644;PMS5003;36494;50.730;-1.932;2023-04-01T06:45:50;3;3;
49644;PMS5003;36494;50.730;-1.932;2023-04-01T06:48:18;4;2;
49644;PMS5003;36494;50.730;-1.932;2023-04-01T06:50:42;2;2;
49644;PMS5003;36494;50.730;-1.932;2023-04-01T06:53:06;3;2;
49644;PMS5003;36494;50.730;-1.932;2023-04-01T06:55:32;1;1;
49644;PMS5003;36494;50.730;-1.932;2023-04-01T06:57:56;2;2;
49644;PMS5003;36494;50.730;-1.932;2023-04-01T07:00:22;3;3;
49644;PMS5003;36494;50.730;-1.932;2023-04-01T07:02:48;2;2;
49644;PMS5003;36494;50.730;-1.932;2023-04-01T07:05:12;2;2;
49644;PMS5003;36494;50.730;-1.932;2023-04-01T07:07:38;4;3;
49644;PMS5003;36494;50.730;-1.932;2023-04-01T07:10:04;2;2;
49644;PMS5003;36494;50.730;-1.932;2023-04-01T07:12:31;6;5;
49644;PMS5003;36494;50.730;-1.932;2023-04-01T07:14:53;2;2;
49644;PMS5003;36494;50.730;-1.932;2023-04-01T07:17:19;2;2;
49644;PMS5003;36494;50.730;-1.932;2023-04-01T07:19:45;4;3;
49644;PMS5003;36494;50.730;-1.932;2023-04-01T07:22:14;2;2;
49644;PMS5003;36494;50.730;-1.932;2023-04-01T07:24:35;2;2;
49644;PMS5003;36494;50.730;-1.932;2023-04-01T07:27:00;3;3;
49644;PMS5003;36494;50.730;-1.932;2023-04-01T07:29:25;4;3;
49644;PMS5003;36494;50.730;-1.932;2023-04-01T07:31:56;5;4;
49644;PMS5003;36494;50.730;-1.932;2023-04-01T07:34:17;3;3;
49644;PMS5003;36494;50.730;-1.932;2023-04-01T07:36:42;2;2;
49644;PMS5003;36494;50.730;-1.932;2023-04-01T07:39:09;5;4;
49644;PMS5003;36494;50.730;-1.932;2023-04-01T07:41:33;5;3;
49644;PMS5003;36494;50.730;-1.932;2023-04-01T07:44:00;3;3;
49644;PMS5003;36494;50.730;-1.932;2023-04-01T07:46:26;2;2;
49644;PMS5003;36494;50.730;-1.932;2023-04-01T07:48:49;2;2;
49644;PMS5003;36494;50.730;-1.932;2023-04-01T07:51:14;3;3;
49644;PMS5003;36494;50.730;-1.932;2023-04-01T07:53:41;2;2;
49644;PMS5003;36494;50.730;-1.932;2023-04-01T07:56:05;5;5;
49644;PMS5003;36494;50.730;-1.932;2023-04-01T07:58:30;3;2;
49644;PMS5003;36494;50.730;-1.932;2023-04-01T08:00:56;3;3;
49644;PMS5003;36494;50.730;-1.932;2023-04-01T08:03:24;4;3;
49644;PMS5003;36494;50.730;-1.932;2023-04-01T08:05:47;3;3;
49644;PMS5003;36494;50.730;-1.932;2023-04-01T08:08:12;3;2;
49644;PMS5003;36494;50.730;-1.932;2023-04-01T08:10:36;4;4;
49644;PMS5003;36494;50.730;-1.932;2023-04-01T08:13:02;2;2;
49644;PMS5003;36494;50.730;-1.932;2023-04-01T08:15:27;2;2;
49644;PMS5003;36494;50.730;-1.932;2023-04-01T08:17:55;2;2;
49644;PMS5003;36494;50.730;-1.932;2023-04-01T08:20:20;2;2;
49644;PMS5003;36494;50.730;-1.932;2023-04-01T08:22:43;2;2;
49644;PMS5003;36494;50.730;-1.932;2023-04-01T08:25:10;1;1;
49644;PMS5003;36494;50.730;-1.932;2023-04-01T08:27:34;3;3;
49644;PMS5003;36494;50.730;-1.932;2023-04-01T08:30:01;2;2;
49644;PMS5003;36494;50.730;-1.932;2023-04-01T08:32:25;1;1;
49644;PMS5003;36494;50.730;-1.932;2023-04-01T08:35:02;4;3;
49644;PMS5003;36494;50.730;-1.932;2023-04-01T08:37:17;5;5;
49644;PMS5003;36494;50.730;-1.932;2023-04-01T08:39:41;1;0;
49644;PMS5003;36494;50.730;-1.932;2023-04-01T08:42:10;2;1;
49644;PMS5003;36494;50.730;-1.932;2023-04-01T08:44:40;1;1;
49644;PMS5003;36494;50.730;-1.932;2023-04-01T08:49:26;0;0;
49644;PMS5003;36494;50.730;-1.932;2023-04-01T08:51:52;2;2;
49644;PMS5003;36494;50.730;-1.932;2023-04-01T08:54:19;3;3;
49644;PMS5003;36494;50.730;-1.932;2023-04-01T08:56:40;1;1;
49644;PMS5003;36494;50.730;-1.932;2023-04-01T08:59:13;4;2;
49644;PMS5003;36494;50.730;-1.932;2023-04-01T09:01:34;2;2;
49644;PMS5003;36494;50.730;-1.932;2023-04-01T09:03:58;1;1;
49644;PMS5003;36494;50.730;-1.932;2023-04-01T09:06:26;4;4;
49644;PMS5003;36494;50.730;-1.932;2023-04-01T09:08:50;4;4;
49644;PMS5003;36494;50.730;-1.932;2023-04-01T09:11:12;2;2;
49644;PMS5003;36494;50.730;-1.932;2023-04-01T09:13:46;3;3;
49644;PMS5003;36494;50.730;-1.932;2023-04-01T09:16:08;2;2;
49644;PMS5003;36494;50.730;-1.932;2023-04-01T09:18:34;2;2;
49644;PMS5003;36494;50.730;-1.932;2023-04-01T09:20:58;4;3;
49644;PMS5003;36494;50.730;-1.932;2023-04-01T09:23:26;9;9;
49644;PMS5003;36494;50.730;-1.932;2023-04-01T09:25:46;4;3;
49644;PMS5003;36494;50.730;-1.932;2023-04-01T09:28:10;2;2;
49644;PMS5003;36494;50.730;-1.932;2023-04-01T09:33:11;2;2;
49644;PMS5003;36494;50.730;-1.932;2023-04-01T09:35:25;3;3;
49644;PMS5003;36494;50.730;-1.932;2023-04-01T09:37:52;4;4;
49644;PMS5003;36494;50.730;-1.932;2023-04-01T09:40:16;2;2;
49644;PMS5003;36494;50.730;-1.932;2023-04-01T09:42:43;4;4;
49644;PMS5003;36494;50.730;-1.932;2023-04-01T09:45:07;2;2;
49644;PMS5003;36494;50.730;-1.932;2023-04-01T09:47:37;4;4;
49644;PMS5003;36494;50.730;-1.932;2023-04-01T09:50:00;2;2;
49644;PMS5003;36494;50.730;-1.932;2023-04-01T09:52:27;4;3;
49644;PMS5003;36494;50.730;-1.932;2023-04-01T09:54:52;2;2;
49644;PMS5003;36494;50.730;-1.932;2023-04-01T09:57:27;2;2;
49644;PMS5003;36494;50.730;-1.932;2023-04-01T10:06:58;4;4;
49644;PMS5003;36494;50.730;-1.932;2023-04-01T10:09:23;2;1;
49644;PMS5003;36494;50.730;-1.932;2023-04-01T10:14:14;3;3;
49644;PMS5003;36494;50.730;-1.932;2023-04-01T10:16:42;3;2;
49644;PMS5003;36494;50.730;-1.932;2023-04-01T10:19:08;3;3;
49644;PMS5003;36494;50.730;-1.932;2023-04-01T10:26:23;4;3;
49644;PMS5003;36494;50.730;-1.932;2023-04-01T10:28:49;5;4;
49644;PMS5003;36494;50.730;-1.932;2023-04-01T10:38:28;3;3;
49644;PMS5003;36494;50.730;-1.932;2023-04-01T10:40:53;7;6;
49644;PMS5003;36494;50.730;-1.932;2023-04-01T10:43:26;4;4;
49644;PMS5003;36494;50.730;-1.932;2023-04-01T10:45:47;6;6;
49644;PMS5003;36494;50.730;-1.932;2023-04-01T10:48:10;4;4;
49644;PMS5003;36494;50.730;-1.932;2023-04-01T10:50:35;4;4;
49644;PMS5003;36494;50.730;-1.932;2023-04-01T10:57:51;6;5;
49644;PMS5003;36494;50.730;-1.932;2023-04-01T11:00:16;4;4;
49644;PMS5003;36494;50.730;-1.932;2023-04-01T11:12:26;4;4;
49644;PMS5003;36494;50.730;-1.932;2023-04-01T11:17:13;4;4;
49644;PMS5003;36494;50.730;-1.932;2023-04-01T11:19:38;6;6;
49644;PMS5003;36494;50.730;-1.932;2023-04-01T11:22:01;5;5;
49644;PMS5003;36494;50.730;-1.932;2023-04-01T11:24:29;8;8;
49644;PMS5003;36494;50.730;-1.932;2023-04-01T11:26:52;5;5;
49644;PMS5003;36494;50.730;-1.932;2023-04-01T11:31:43;5;5;
49644;PMS5003;36494;50.730;-1.932;2023-04-01T11:34:11;4;4;
49644;PMS5003;36494;50.730;-1.932;2023-04-01T11:36:34;3;3;
49644;PMS5003;36494;50.730;-1.932;2023-04-01T11:39:00;3;2;
49644;PMS5003;36494;50.730;-1.932;2023-04-01T11:41:25;2;2;
49644;PMS5003;36494;50.730;-1.932;2023-04-01T11:43:50;3;3;
49644;PMS5003;36494;50.730;-1.932;2023-04-01T11:46:15;4;4;
49644;PMS5003;36494;50.730;-1.932;2023-04-01T11:48:49;4;4;
49644;PMS5003;36494;50.730;-1.932;2023-04-01T11:51:09;3;2;
49644;PMS5003;36494;50.730;-1.932;2023-04-01T11:53:32;4;3;
49644;PMS5003;36494;50.730;-1.932;2023-04-01T11:55:58;2;2;
49644;PMS5003;36494;50.730;-1.932;2023-04-01T11:58:25;3;3;
49644;PMS5003;36494;50.730;-1.932;2023-04-01T12:00:53;2;2;
49644;PMS5003;36494;50.730;-1.932;2023-04-01T12:03:17;2;2;
49644;PMS5003;36494;50.730;-1.932;2023-04-01T12:05:38;2;2;
49644;PMS5003;36494;50.730;-1.932;2023-04-01T12:08:04;3;3;
49644;PMS5003;36494;50.730;-1.932;2023-04-01T12:10:29;1;1;
49644;PMS5003;36494;50.730;-1.932;2023-04-01T12:12:55;2;2;
49644;PMS5003;36494;50.730;-1.932;2023-04-01T12:15:20;1;1;
49644;PMS5003;36494;50.730;-1.932;2023-04-01T12:17:45;1;1;
49644;PMS5003;36494;50.730;-1.932;2023-04-01T12:20:21;0;0;
49644;PMS5003;36494;50.730;-1.932;2023-04-01T12:22:37;0;0;
49644;PMS5003;36494;50.730;-1.932;2023-04-01T12:25:03;2;2;
49644;PMS5003;36494;50.730;-1.932;2023-04-01T12:27:31;1;1;
49644;PMS5003;36494;50.730;-1.932;2023-04-01T12:29:57;1;1;
49644;PMS5003;36494;50.730;-1.932;2023-04-01T12:32:17;0;0;
49644;PMS5003;36494;50.730;-1.932;2023-04-01T12:34:44;1;1;
49644;PMS5003;36494;50.730;-1.932;2023-04-01T12:37:07;0;0;
49644;PMS5003;36494;50.730;-1.932;2023-04-01T12:39:35;0;0;
49644;PMS5003;36494;50.730;-1.932;2023-04-01T12:41:59;1;1;
49644;PMS5003;36494;50.730;-1.932;2023-04-01T12:44:25;0;0;
49644;PMS5003;36494;50.730;-1.932;2023-04-01T12:46:56;0;0;
49644;PMS5003;36494;50.730;-1.932;2023-04-01T12:51:41;0;0;
49644;PMS5003;36494;50.730;-1.932;2023-04-01T12:56:30;0;0;
49644;PMS5003;36494;50.730;-1.932;2023-04-01T12:58:59;1;1;
49644;PMS5003;36494;50.730;-1.932;2023-04-01T13:01:24;0;0;
49644;PMS5003;36494;50.730;-1.932;2023-04-01T13:03:48;0;0;
49644;PMS5003;36494;50.730;-1.932;2023-04-01T13:08:36;0;0;
49644;PMS5003;36494;50.730;-1.932;2023-04-01T13:11:02;0;0;
49644;PMS5003;36494;50.730;-1.932;2023-04-01T13:13:29;0;0;
49644;PMS5003;36494;50.730;-1.932;2023-04-01T13:15:50;0;0;
49644;PMS5003;36494;50.730;-1.932;2023-04-01T13:18:20;0;0;
49644;PMS5003;36494;50.730;-1.932;2023-04-01T13:20:43;1;1;
49644;PMS5003;36494;50.730;-1.932;2023-04-01T13:23:09;0;0;
49644;PMS5003;36494;50.730;-1.932;2023-04-01T13:25:34;1;1;
49644;PMS5003;36494;50.730;-1.932;2023-04-01T13:27:59;1;1;
49644;PMS5003;36494;50.730;-1.932;2023-04-01T13:30:24;0;0;
49644;PMS5003;36494;50.730;-1.932;2023-04-01T13:32:49;0;0;
49644;PMS5003;36494;50.730;-1.932;2023-04-01T13:35:18;0;0;
49644;PMS5003;36494;50.730;-1.932;2023-04-01T13:37:42;0;0;
49644;PMS5003;36494;50.730;-1.932;2023-04-01T13:42:29;0;0;
49644;PMS5003;36494;50.730;-1.932;2023-04-01T13:44:55;0;0;
49644;PMS5003;36494;50.730;-1.932;2023-04-01T13:47:24;1;1;
49644;PMS5003;36494;50.730;-1.932;2023-04-01T13:49:48;0;0;
49644;PMS5003;36494;50.730;-1.932;2023-04-01T13:52:16;1;1;
49644;PMS5003;36494;50.730;-1.932;2023-04-01T13:54:44;1;1;
49644;PMS5003;36494;50.730;-1.932;2023-04-01T13:57:05;0;0;
49644;PMS5003;36494;50.730;-1.932;2023-04-01T14:01:53;2;2;
49644;PMS5003;36494;50.730;-1.932;2023-04-01T14:04:23;1;1;
49644;PMS5003;36494;50.730;-1.932;2023-04-01T14:06:45;1;1;
49644;PMS5003;36494;50.730;-1.932;2023-04-01T14:09:13;1;1;
49644;PMS5003;36494;50.730;-1.932;2023-04-01T14:11:33;4;4;
49644;PMS5003;36494;50.730;-1.932;2023-04-01T14:13:59;4;4;
49644;PMS5003;36494;50.730;-1.932;2023-04-01T14:16:27;2;2;
49644;PMS5003;36494;50.730;-1.932;2023-04-01T14:18:52;1;1;
49644;PMS5003;36494;50.730;-1.932;2023-04-01T14:21:17;0;0;
49644;PMS5003;36494;50.730;-1.932;2023-04-01T14:23:43;2;2;
49644;PMS5003;36494;50.730;-1.932;2023-04-01T14:26:07;2;2;
49644;PMS5003;36494;50.730;-1.932;2023-04-01T14:28:31;3;3;
49644;PMS5003;36494;50.730;-1.932;2023-04-01T14:30:59;0;0;
49644;PMS5003;36494;50.730;-1.932;2023-04-01T14:33:24;1;1;
49644;PMS5003;36494;50.730;-1.932;2023-04-01T14:35:46;3;3;
49644;PMS5003;36494;50.730;-1.932;2023-04-01T14:40:44;3;3;
49644;PMS5003;36494;50.730;-1.932;2023-04-01T14:43:06;3;3;
49644;PMS5003;36494;50.730;-1.932;2023-04-01T14:45:31;2;2;
49644;PMS5003;36494;50.730;-1.932;2023-04-01T14:47:52;3;3;
49644;PMS5003;36494;50.730;-1.932;2023-04-01T14:50:17;2;2;
49644;PMS5003;36494;50.730;-1.932;2023-04-01T14:52:43;2;2;
49644;PMS5003;36494;50.730;-1.932;2023-04-01T14:55:17;2;2;
49644;PMS5003;36494;50.730;-1.932;2023-04-01T14:57:33;3;3;
49644;PMS5003;36494;50.730;-1.932;2023-04-01T14:59:59;3;3;
49644;PMS5003;36494;50.730;-1.932;2023-04-01T15:02:29;4;4;
49644;PMS5003;36494;50.730;-1.932;2023-04-01T15:04:52;3;3;
49644;PMS5003;36494;50.730;-1.932;2023-04-01T15:07:24;4;4;
49644;PMS5003;36494;50.730;-1.932;2023-04-01T15:09:40;3;3;
49644;PMS5003;36494;50.730;-1.932;2023-04-01T15:12:07;3;3;
49644;PMS5003;36494;50.730;-1.932;2023-04-01T15:16:57;6;5;
49644;PMS5003;36494;50.730;-1.932;2023-04-01T15:19:24;7;7;
49644;PMS5003;36494;50.730;-1.932;2023-04-01T15:21:49;7;7;
49644;PMS5003;36494;50.730;-1.932;2023-04-01T15:24:13;7;7;
49644;PMS5003;36494;50.730;-1.932;2023-04-01T15:26:42;10;9;
49644;PMS5003;36494;50.730;-1.932;2023-04-01T15:29:07;10;9;
49644;PMS5003;36494;50.730;-1.932;2023-04-01T15:31:28;7;6;
49644;PMS5003;36494;50.730;-1.932;2023-04-01T15:33:57;10;10;
49644;PMS5003;36494;50.730;-1.932;2023-04-01T15:36:23;9;9;
49644;PMS5003;36494;50.730;-1.932;2023-04-01T15:38:46;11;11;
49644;PMS5003;36494;50.730;-1.932;2023-04-01T15:41:12;15;13;
49644;PMS5003;36494;50.730;-1.932;2023-04-01T15:43:38;16;14;
49644;PMS5003;36494;50.730;-1.932;2023-04-01T15:48:31;13;11;
49644;PMS5003;36494;50.730;-1.932;2023-04-01T15:50:54;17;14;
49644;PMS5003;36494;50.730;-1.932;2023-04-01T15:53:24;12;12;
49644;PMS5003;36494;50.730;-1.932;2023-04-01T15:55:44;16;15;
49644;PMS5003;36494;50.730;-1.932;2023-04-01T15:58:19;15;14;
49644;PMS5003;36494;50.730;-1.932;2023-04-01T16:00:40;13;12;
49644;PMS5003;36494;50.730;-1.932;2023-04-01T16:05:27;18;17;
49644;PMS5003;36494;50.730;-1.932;2023-04-01T16:07:56;19;16;
49644;PMS5003;36494;50.730;-1.932;2023-04-01T16:10:25;12;11;
49644;PMS5003;36494;50.730;-1.932;2023-04-01T16:12:47;13;12;
49644;PMS5003;36494;50.730;-1.932;2023-04-01T16:15:12;13;11;
49644;PMS5003;36494;50.730;-1.932;2023-04-01T16:17:39;14;13;
49644;PMS5003;36494;50.730;-1.932;2023-04-01T16:20:00;11;10;
49644;PMS5003;36494;50.730;-1.932;2023-04-01T16:22:25;13;13;
49644;PMS5003;36494;50.730;-1.932;2023-04-01T16:24:51;9;8;
49644;PMS5003;36494;50.730;-1.932;2023-04-01T16:27:18;10;10;
49644;PMS5003;36494;50.730;-1.932;2023-04-01T16:29:43;12;11;
49644;PMS5003;36494;50.730;-1.932;2023-04-01T16:32:15;12;12;
49644;PMS5003;36494;50.730;-1.932;2023-04-01T16:34:34;7;7;
49644;PMS5003;36494;50.730;-1.932;2023-04-01T16:37:00;13;13;
49644;PMS5003;36494;50.730;-1.932;2023-04-01T16:39:26;12;11;
49644;PMS5003;36494;50.730;-1.932;2023-04-01T16:41:49;8;8;
49644;PMS5003;36494;50.730;-1.932;2023-04-01T16:44:14;12;11;
49644;PMS5003;36494;50.730;-1.932;2023-04-01T16:46:38;9;9;
49644;PMS5003;36494;50.730;-1.932;2023-04-01T16:49:13;11;11;
49644;PMS5003;36494;50.730;-1.932;2023-04-01T16:51:33;7;7;
49644;PMS5003;36494;50.730;-1.932;2023-04-01T16:54:00;10;9;
49644;PMS5003;36494;50.730;-1.932;2023-04-01T16:56:20;7;6;
49644;PMS5003;36494;50.730;-1.932;2023-04-01T16:58:56;7;7;
49644;PMS5003;36494;50.730;-1.932;2023-04-01T17:01:12;6;6;
49644;PMS5003;36494;50.730;-1.932;2023-04-01T17:03:37;6;6;
49644;PMS5003;36494;50.730;-1.932;2023-04-01T17:06:03;8;8;
49644;PMS5003;36494;50.730;-1.932;2023-04-01T17:08:30;6;6;
49644;PMS5003;36494;50.730;-1.932;2023-04-01T17:10:52;9;9;
49644;PMS5003;36494;50.730;-1.932;2023-04-01T17:13:20;11;10;
49644;PMS5003;36494;50.730;-1.932;2023-04-01T17:15:43;9;9;
49644;PMS5003;36494;50.730;-1.932;2023-04-01T17:18:08;7;7;
49644;PMS5003;36494;50.730;-1.932;2023-04-01T17:20:35;10;9;
49644;PMS5003;36494;50.730;-1.932;2023-04-01T17:23:00;10;10;
49644;PMS5003;36494;50.730;-1.932;2023-04-01T17:25:29;7;7;
49644;PMS5003;36494;50.730;-1.932;2023-04-01T17:27:50;6;6;
49644;PMS5003;36494;50.730;-1.932;2023-04-01T17:30:17;19;18;
49644;PMS5003;36494;50.730;-1.932;2023-04-01T17:32:45;19;19;
49644;PMS5003;36494;50.730;-1.932;2023-04-01T17:35:05;16;16;
49644;PMS5003;36494;50.730;-1.932;2023-04-01T17:37:34;14;14;